sensor_id;sensor_type;location;lat;lon;timestamp;pressure;altitude;pressure_sealevel;temperature;humidity
38786;BME280;24535;45.508;12.252;2024-03-08T00:06:46;101706.03;;;15.38;58.12
38786;BME280;24535;45.508;12.252;2024-03-08T00:09:20;101702.66;;;15.36;57.72
38786;BME280;24535;45.508;12.252;2024-03-08T00:11:46;101706.16;;;15.36;57.87
38786;BME280;24535;45.508;12.252;2024-03-08T00:14:18;101698.59;;;15.30;57.97
38786;BME280;24535;45.508;12.252;2024-03-08T00:16:44;101700.53;;;15.28;58.46
38786;BME280;24535;45.508;12.252;2024-03-08T00:19:09;101692.56;;;15.28;57.67
38786;BME280;24535;45.508;12.252;2024-03-08T00:21:35;101705.59;;;15.31;57.59
38786;BME280;24535;45.508;12.252;2024-03-08T00:24:13;101706.47;;;15.31;57.60
38786;BME280;24535;45.508;12.252;2024-03-08T00:26:48;101707.31;;;15.32;57.56
38786;BME280;24535;45.508;12.252;2024-03-08T00:29:13;101702.94;;;15.31;58.17
38786;BME280;24535;45.508;12.252;2024-03-08T00:31:39;101698.59;;;15.30;57.58
38786;BME280;24535;45.508;12.252;2024-03-08T00:34:11;101701.25;;;15.30;57.74
38786;BME280;24535;45.508;12.252;2024-03-08T00:36:37;101699.44;;;15.30;57.76
38786;BME280;24535;45.508;12.252;2024-03-08T00:39:10;101702.84;;;15.32;57.72
38786;BME280;24535;45.508;12.252;2024-03-08T00:41:37;101698.72;;;15.28;57.68
38786;BME280;24535;45.508;12.252;2024-03-08T00:44:02;101703.81;;;15.31;57.63
38786;BME280;24535;45.508;12.252;2024-03-08T00:47:03;101700.28;;;15.31;57.26
38786;BME280;24535;45.508;12.252;2024-03-08T00:49:45;101704.53;;;15.33;57.02
38786;BME280;24535;45.508;12.252;2024-03-08T00:52:31;101706.56;;;15.30;57.77
38786;BME280;24535;45.508;12.252;2024-03-08T00:57:40;101705.09;;;15.26;57.01
38786;BME280;24535;45.508;12.252;2024-03-08T01:00:06;101717.41;;;15.27;57.04
38786;BME280;24535;45.508;12.252;2024-03-08T01:02:49;101710.50;;;15.24;57.23
38786;BME280;24535;45.508;12.252;2024-03-08T01:05:46;101717.41;;;15.27;57.64
38786;BME280;24535;45.508;12.252;2024-03-08T01:08:18;101714.88;;;15.25;57.42
38786;BME280;24535;45.508;12.252;2024-03-08T01:10:55;101708.91;;;15.22;57.09
38786;BME280;24535;45.508;12.252;2024-03-08T01:13:51;101709.88;;;15.21;57.34
38786;BME280;24535;45.508;12.252;2024-03-08T01:16:24;101704.06;;;15.16;57.13
38786;BME280;24535;45.508;12.252;2024-03-08T01:18:55;101698.50;;;15.19;57.55
38786;BME280;24535;45.508;12.252;2024-03-08T01:21:26;101691.19;;;15.09;57.25
38786;BME280;24535;45.508;12.252;2024-03-08T01:23:57;101693.34;;;15.04;56.65
38786;BME280;24535;45.508;12.252;2024-03-08T01:26:32;101696.13;;;15.03;57.55
38786;BME280;24535;45.508;12.252;2024-03-08T01:29:08;101694.19;;;15.05;57.33
38786;BME280;24535;45.508;12.252;2024-03-08T01:31:39;101690.81;;;15.03;57.54
38786;BME280;24535;45.508;12.252;2024-03-08T01:34:33;101695.03;;;15.05;57.29
38786;BME280;24535;45.508;12.252;2024-03-08T01:36:59;101687.19;;;15.04;56.91
38786;BME280;24535;45.508;12.252;2024-03-08T01:39:26;101684.63;;;15.02;57.25
38786;BME280;24535;45.508;12.252;2024-03-08T01:42:01;101691.41;;;15.06;57.75
38786;BME280;24535;45.508;12.252;2024-03-08T01:44:32;101681.25;;;15.00;57.46
38786;BME280;24535;45.508;12.252;2024-03-08T01:47:32;101681.97;;;15.02;57.14
38786;BME280;24535;45.508;12.252;2024-03-08T01:50:17;101674.88;;;15.03;57.03
38786;BME280;24535;45.508;12.252;2024-03-08T01:52:42;101680.91;;;15.05;57.19
38786;BME280;24535;45.508;12.252;2024-03-08T01:57:43;101679.94;;;15.06;57.23
38786;BME280;24535;45.508;12.252;2024-03-08T02:00:15;101681.69;;;15.07;57.31
38786;BME280;24535;45.508;12.252;2024-03-08T02:02:42;101675.72;;;15.03;57.25
38786;BME280;24535;45.508;12.252;2024-03-08T02:05:36;101671.47;;;15.01;57.13
38786;BME280;24535;45.508;12.252;2024-03-08T02:08:02;101655.88;;;14.96;57.08
38786;BME280;24535;45.508;12.252;2024-03-08T02:10:44;101660.03;;;15.00;56.93
38786;BME280;24535;45.508;12.252;2024-03-08T02:13:10;101649.28;;;15.02;57.16
38786;BME280;24535;45.508;12.252;2024-03-08T02:15:58;101645.78;;;15.01;57.14
38786;BME280;24535;45.508;12.252;2024-03-08T02:18:48;101642.28;;;15.01;57.25
38786;BME280;24535;45.508;12.252;2024-03-08T02:24:06;101648.00;;;14.95;57.26
38786;BME280;24535;45.508;12.252;2024-03-08T02:26:35;101638.69;;;14.89;57.41
38786;BME280;24535;45.508;12.252;2024-03-08T02:29:01;101647.81;;;14.85;57.51
38786;BME280;24535;45.508;12.252;2024-03-08T02:31:54;101638.50;;;14.79;57.05
38786;BME280;24535;45.508;12.252;2024-03-08T02:34:20;101647.19;;;14.81;57.30
38786;BME280;24535;45.508;12.252;2024-03-08T02:36:46;101640.41;;;14.77;57.18
38786;BME280;24535;45.508;12.252;2024-03-08T02:39:18;101639.44;;;14.78;57.58
38786;BME280;24535;45.508;12.252;2024-03-08T02:41:48;101639.69;;;14.75;57.21
38786;BME280;24535;45.508;12.252;2024-03-08T02:44:13;101627.66;;;14.70;57.26
38786;BME280;24535;45.508;12.252;2024-03-08T02:46:40;101630.56;;;14.67;57.54
38786;BME280;24535;45.508;12.252;2024-03-08T02:49:08;101633.22;;;14.67;57.62
38786;BME280;24535;45.508;12.252;2024-03-08T02:51:36;101632.13;;;14.69;57.78
38786;BME280;24535;45.508;12.252;2024-03-08T02:54:02;101633.72;;;14.72;57.01
38786;BME280;24535;45.508;12.252;2024-03-08T02:56:31;101627.03;;;14.66;57.45
38786;BME280;24535;45.508;12.252;2024-03-08T03:10:39;101643.06;;;14.77;57.36
38786;BME280;24535;45.508;12.252;2024-03-08T03:13:05;101635.31;;;14.74;56.81
38786;BME280;24535;45.508;12.252;2024-03-08T03:15:30;101636.25;;;14.73;57.11
38786;BME280;24535;45.508;12.252;2024-03-08T03:17:56;101632.88;;;14.71;56.93
38786;BME280;24535;45.508;12.252;2024-03-08T03:20:21;101635.53;;;14.71;56.38
38786;BME280;24535;45.508;12.252;2024-03-08T03:23:10;101630.66;;;14.65;56.92
38786;BME280;24535;45.508;12.252;2024-03-08T03:25:42;101635.31;;;14.62;56.78
38786;BME280;24535;45.508;12.252;2024-03-08T03:28:07;101637.66;;;14.53;57.43
38786;BME280;24535;45.508;12.252;2024-03-08T03:30:36;101638.91;;;14.48;56.58
38786;BME280;24535;45.508;12.252;2024-03-08T03:33:05;101635.50;;;14.46;57.02
38786;BME280;24535;45.508;12.252;2024-03-08T03:35:32;101625.22;;;14.41;56.97
38786;BME280;24535;45.508;12.252;2024-03-08T03:38:04;101638.47;;;14.41;57.24
38786;BME280;24535;45.508;12.252;2024-03-08T03:40:36;101634.25;;;14.39;56.63
38786;BME280;24535;45.508;12.252;2024-03-08T03:43:03;101636.97;;;14.37;56.86
38786;BME280;24535;45.508;12.252;2024-03-08T03:45:31;101628.63;;;14.30;56.91
38786;BME280;24535;45.508;12.252;2024-03-08T03:48:10;101636.25;;;14.35;57.24
38786;BME280;24535;45.508;12.252;2024-03-08T03:50:36;101640.47;;;14.38;56.96
38786;BME280;24535;45.508;12.252;2024-03-08T03:53:04;101645.78;;;14.38;56.43
38786;BME280;24535;45.508;12.252;2024-03-08T03:55:36;101636.44;;;14.32;57.32
38786;BME280;24535;45.508;12.252;2024-03-08T03:58:04;101640.91;;;14.31;56.94
38786;BME280;24535;45.508;12.252;2024-03-08T04:00:36;101641.75;;;14.32;56.93
38786;BME280;24535;45.508;12.252;2024-03-08T04:03:07;101646.22;;;14.31;56.41
38786;BME280;24535;45.508;12.252;2024-03-08T04:05:39;101651.50;;;14.31;56.23
38786;BME280;24535;45.508;12.252;2024-03-08T04:08:20;101643.88;;;14.27;56.50
38786;BME280;24535;45.508;12.252;2024-03-08T04:11:24;101653.31;;;14.31;56.83
38786;BME280;24535;45.508;12.252;2024-03-08T04:13:56;101649.81;;;14.30;56.27
38786;BME280;24535;45.508;12.252;2024-03-08T04:16:32;101654.03;;;14.33;56.79
38786;BME280;24535;45.508;12.252;2024-03-08T04:19:03;101645.13;;;14.34;56.92
38786;BME280;24535;45.508;12.252;2024-03-08T04:21:55;101646.00;;;14.34;56.74
38786;BME280;24535;45.508;12.252;2024-03-08T04:24:20;101639.22;;;14.30;56.79
38786;BME280;24535;45.508;12.252;2024-03-08T04:26:58;101646.09;;;14.33;56.38
38786;BME280;24535;45.508;12.252;2024-03-08T04:37:17;101647.69;;;14.35;56.28
38786;BME280;24535;45.508;12.252;2024-03-08T04:42:47;101652.34;;;14.32;56.69
38786;BME280;24535;45.508;12.252;2024-03-08T04:45:16;101646.53;;;14.27;56.61
38786;BME280;24535;45.508;12.252;2024-03-08T04:48:00;101649.50;;;14.35;56.38
38786;BME280;24535;45.508;12.252;2024-03-08T04:50:31;101641.75;;;14.32;56.54
38786;BME280;24535;45.508;12.252;2024-03-08T04:53:12;101646.28;;;14.30;56.39
38786;BME280;24535;45.508;12.252;2024-03-08T04:55:54;101651.38;;;14.33;56.20
38786;BME280;24535;45.508;12.252;2024-03-08T04:58:26;101649.16;;;14.27;56.02
38786;BME280;24535;45.508;12.252;2024-03-08T05:00:55;101652.03;;;14.24;56.50
38786;BME280;24535;45.508;12.252;2024-03-08T05:03:30;101652.88;;;14.24;56.43
38786;BME280;24535;45.508;12.252;2024-03-08T05:11:56;101654.34;;;14.28;56.78
38786;BME280;24535;45.508;12.252;2024-03-08T05:14:36;101645.75;;;14.25;56.30
38786;BME280;24535;45.508;12.252;2024-03-08T05:17:01;101651.19;;;14.23;56.73
38786;BME280;24535;45.508;12.252;2024-03-08T05:19:30;101659.00;;;14.25;56.80
38786;BME280;24535;45.508;12.252;2024-03-08T05:21:58;101658.81;;;14.28;56.34
38786;BME280;24535;45.508;12.252;2024-03-08T05:24:24;101662.31;;;14.28;56.36
38786;BME280;24535;45.508;12.252;2024-03-08T05:26:49;101660.63;;;14.27;56.39
38786;BME280;24535;45.508;12.252;2024-03-08T05:29:19;101671.88;;;14.31;56.32
38786;BME280;24535;45.508;12.252;2024-03-08T05:31:54;101661.34;;;14.29;56.76
38786;BME280;24535;45.508;12.252;2024-03-08T05:40:43;101664.84;;;14.30;56.56
38786;BME280;24535;45.508;12.252;2024-03-08T05:43:08;101678.97;;;14.30;56.30
38786;BME280;24535;45.508;12.252;2024-03-08T05:45:46;101684.28;;;14.30;56.37
38786;BME280;24535;45.508;12.252;2024-03-08T05:48:15;101680.88;;;14.28;56.58
38786;BME280;24535;45.508;12.252;2024-03-08T05:50:44;101686.03;;;14.30;56.59
38786;BME280;24535;45.508;12.252;2024-03-08T06:02:55;101685.66;;;14.36;56.31
38786;BME280;24535;45.508;12.252;2024-03-08T06:05:21;101679.69;;;14.32;56.37
38786;BME280;24535;45.508;12.252;2024-03-08T06:11:20;101679.38;;;14.24;56.99
38786;BME280;24535;45.508;12.252;2024-03-08T06:14:10;101683.81;;;14.24;56.37
38786;BME280;24535;45.508;12.252;2024-03-08T06:16:45;101690.81;;;14.25;56.73
38786;BME280;24535;45.508;12.252;2024-03-08T06:19:14;101692.94;;;14.20;56.66
38786;BME280;24535;45.508;12.252;2024-03-08T06:21:47;101686.88;;;14.18;56.72
38786;BME280;24535;45.508;12.252;2024-03-08T06:24:13;101700.13;;;14.18;57.06
38786;BME280;24535;45.508;12.252;2024-03-08T06:26:40;101697.78;;;14.13;56.81
38786;BME280;24535;45.508;12.252;2024-03-08T06:29:06;101699.50;;;14.14;56.68
38786;BME280;24535;45.508;12.252;2024-03-08T06:31:32;101701.09;;;14.17;57.39
38786;BME280;24535;45.508;12.252;2024-03-08T06:33:57;101707.16;;;14.19;56.91
38786;BME280;24535;45.508;12.252;2024-03-08T06:36:23;101704.38;;;14.20;56.70
38786;BME280;24535;45.508;12.252;2024-03-08T06:38:49;101706.19;;;14.20;56.85
38786;BME280;24535;45.508;12.252;2024-03-08T06:41:21;101705.75;;;14.26;56.63
38786;BME280;24535;45.508;12.252;2024-03-08T06:46:28;101712.66;;;14.28;56.95
38786;BME280;24535;45.508;12.252;2024-03-08T06:48:56;101716.09;;;14.30;56.63
38786;BME280;24535;45.508;12.252;2024-03-08T06:51:22;101708.31;;;14.27;56.85
38786;BME280;24535;45.508;12.252;2024-03-08T06:53:50;101708.97;;;14.31;56.88
38786;BME280;24535;45.508;12.252;2024-03-08T06:56:18;101717.25;;;14.26;56.43
38786;BME280;24535;45.508;12.252;2024-03-08T06:58:44;101715.44;;;14.27;56.69
38786;BME280;24535;45.508;12.252;2024-03-08T07:01:10;101724.75;;;14.32;57.24
38786;BME280;24535;45.508;12.252;2024-03-08T07:03:42;101724.75;;;14.32;56.60
38786;BME280;24535;45.508;12.252;2024-03-08T07:06:10;101722.97;;;14.33;56.87
38786;BME280;24535;45.508;12.252;2024-03-08T07:08:36;101731.75;;;14.33;57.26
38786;BME280;24535;45.508;12.252;2024-03-08T07:11:02;101721.91;;;14.35;56.54
38786;BME280;24535;45.508;12.252;2024-03-08T07:13:28;101729.75;;;14.37;57.14
38786;BME280;24535;45.508;12.252;2024-03-08T07:15:54;101729.75;;;14.37;57.02
38786;BME280;24535;45.508;12.252;2024-03-08T07:18:20;101731.47;;;14.38;57.01
38786;BME280;24535;45.508;12.252;2024-03-08T07:20:47;101728.81;;;14.38;56.98
38786;BME280;24535;45.508;12.252;2024-03-08T07:23:14;101724.44;;;14.37;56.90
38786;BME280;24535;45.508;12.252;2024-03-08T07:26:00;101744.50;;;14.41;57.09
38786;BME280;24535;45.508;12.252;2024-03-08T07:28:26;101750.66;;;14.42;56.75
38786;BME280;24535;45.508;12.252;2024-03-08T07:30:52;101752.47;;;14.41;57.13
38786;BME280;24535;45.508;12.252;2024-03-08T07:33:26;101751.41;;;14.44;56.43
38786;BME280;24535;45.508;12.252;2024-03-08T07:35:52;101748.66;;;14.45;56.54
38786;BME280;24535;45.508;12.252;2024-03-08T07:38:17;101750.56;;;14.43;57.00
38786;BME280;24535;45.508;12.252;2024-03-08T07:40:46;101752.38;;;14.43;56.65
38786;BME280;24535;45.508;12.252;2024-03-08T07:43:13;101752.25;;;14.44;57.00
38786;BME280;24535;45.508;12.252;2024-03-08T07:45:39;101758.41;;;14.45;57.13
38786;BME280;24535;45.508;12.252;2024-03-08T07:48:05;101757.56;;;14.44;57.01
38786;BME280;24535;45.508;12.252;2024-03-08T07:50:38;101750.56;;;14.43;57.04
38786;BME280;24535;45.508;12.252;2024-03-08T07:53:07;101761.06;;;14.45;57.48
38786;BME280;24535;45.508;12.252;2024-03-08T07:55:41;101760.22;;;14.44;56.89
38786;BME280;24535;45.508;12.252;2024-03-08T08:00:54;101769.97;;;14.44;56.99
38786;BME280;24535;45.508;12.252;2024-03-08T08:03:48;101758.84;;;14.39;57.25
38786;BME280;24535;45.508;12.252;2024-03-08T08:09:38;101766.03;;;14.37;56.63
38786;BME280;24535;45.508;12.252;2024-03-08T08:12:25;101765.94;;;14.38;57.11
38786;BME280;24535;45.508;12.252;2024-03-08T08:14:50;101764.13;;;14.39;57.44
38786;BME280;24535;45.508;12.252;2024-03-08T08:20:01;101763.47;;;14.35;57.21
38786;BME280;24535;45.508;12.252;2024-03-08T08:22:39;101765.28;;;14.34;56.73
38786;BME280;24535;45.508;12.252;2024-03-08T08:25:09;101756.69;;;14.31;57.27
38786;BME280;24535;45.508;12.252;2024-03-08T08:27:45;101764.53;;;14.32;56.67
38786;BME280;24535;45.508;12.252;2024-03-08T08:30:26;101764.72;;;14.29;56.89
38786;BME280;24535;45.508;12.252;2024-03-08T08:32:52;101764.00;;;14.27;57.47
38786;BME280;24535;45.508;12.252;2024-03-08T08:38:51;101769.94;;;14.31;57.55
38786;BME280;24535;45.508;12.252;2024-03-08T08:45:02;101770.66;;;14.33;56.82
38786;BME280;24535;45.508;12.252;2024-03-08T08:51:19;101763.88;;;14.29;56.97
38786;BME280;24535;45.508;12.252;2024-03-08T08:53:45;101755.28;;;14.25;57.45
38786;BME280;24535;45.508;12.252;2024-03-08T08:56:27;101762.38;;;14.25;57.18
38786;BME280;24535;45.508;12.252;2024-03-08T08:59:40;101765.03;;;14.25;56.96
38786;BME280;24535;45.508;12.252;2024-03-08T09:02:14;101761.66;;;14.23;56.99
38786;BME280;24535;45.508;12.252;2024-03-08T09:04:53;101772.03;;;14.26;57.69
38786;BME280;24535;45.508;12.252;2024-03-08T09:07:47;101766.09;;;14.22;57.52
38786;BME280;24535;45.508;12.252;2024-03-08T09:45:26;101777.75;;;14.20;57.20
38786;BME280;24535;45.508;12.252;2024-03-08T09:47:54;101777.84;;;14.18;57.29
38786;BME280;24535;45.508;12.252;2024-03-08T09:50:29;101784.72;;;14.21;57.38
38786;BME280;24535;45.508;12.252;2024-03-08T09:52:55;101784.66;;;14.22;57.71
38786;BME280;24535;45.508;12.252;2024-03-08T09:56:00;101774.91;;;14.23;57.52
38786;BME280;24535;45.508;12.252;2024-03-08T09:58:29;101772.97;;;14.25;57.19
38786;BME280;24535;45.508;12.252;2024-03-08T10:01:24;101772.91;;;14.26;57.06
38786;BME280;24535;45.508;12.252;2024-03-08T10:04:06;101770.34;;;14.25;57.66
38786;BME280;24535;45.508;12.252;2024-03-08T10:06:32;101769.59;;;14.23;57.18
38786;BME280;24535;45.508;12.252;2024-03-08T10:08:58;101768.53;;;14.25;57.66
38786;BME280;24535;45.508;12.252;2024-03-08T10:11:26;101777.13;;;14.29;57.64
38786;BME280;24535;45.508;12.252;2024-03-08T10:13:52;101768.34;;;14.28;57.42
38786;BME280;24535;45.508;12.252;2024-03-08T10:16:17;101769.47;;;14.24;57.24
38786;BME280;24535;45.508;12.252;2024-03-08T10:24:35;101783.34;;;14.15;57.78
38786;BME280;24535;45.508;12.252;2024-03-08T10:27:07;101773.91;;;14.11;57.38
38786;BME280;24535;45.508;12.252;2024-03-08T10:29:36;101770.69;;;14.06;57.40
38786;BME280;24535;45.508;12.252;2024-03-08T10:32:03;101770.03;;;14.02;57.71
38786;BME280;24535;45.508;12.252;2024-03-08T10:34:34;101766.38;;;13.91;58.16
38786;BME280;24535;45.508;12.252;2024-03-08T10:37:21;101770.44;;;13.96;57.80
38786;BME280;24535;45.508;12.252;2024-03-08T10:40:04;101765.72;;;13.87;57.81
38786;BME280;24535;45.508;12.252;2024-03-08T10:46:27;101775.72;;;13.96;57.81
38786;BME280;24535;45.508;12.252;2024-03-08T10:48:58;101764.69;;;13.90;57.73
38786;BME280;24535;45.508;12.252;2024-03-08T10:51:35;101767.34;;;13.90;57.82
38786;BME280;24535;45.508;12.252;2024-03-08T10:59:48;101757.53;;;13.77;57.68
38786;BME280;24535;45.508;12.252;2024-03-08T11:05:45;101762.53;;;13.82;57.66
38786;BME280;24535;45.508;12.252;2024-03-08T11:08:20;101772.06;;;13.84;57.83
38786;BME280;24535;45.508;12.252;2024-03-08T11:10:54;101766.88;;;13.83;57.75
38786;BME280;24535;45.508;12.252;2024-03-08T11:13:36;101762.44;;;13.83;57.59
38786;BME280;24535;45.508;12.252;2024-03-08T11:16:36;101767.72;;;13.83;58.25
38786;BME280;24535;45.508;12.252;2024-03-08T11:19:05;101770.25;;;13.85;57.86
38786;BME280;24535;45.508;12.252;2024-03-08T11:21:37;101765.25;;;13.80;57.30
38786;BME280;24535;45.508;12.252;2024-03-08T11:24:36;101764.97;;;13.85;57.76
38786;BME280;24535;45.508;12.252;2024-03-08T11:27:09;101759.66;;;13.85;58.04
38786;BME280;24535;45.508;12.252;2024-03-08T11:29:44;101759.31;;;13.77;57.53
38786;BME280;24535;45.508;12.252;2024-03-08T11:32:14;101741.84;;;13.74;57.47
38786;BME280;24535;45.508;12.252;2024-03-08T11:34:48;101747.78;;;13.78;57.21
38786;BME280;24535;45.508;12.252;2024-03-08T11:37:22;101751.94;;;13.82;57.58
38786;BME280;24535;45.508;12.252;2024-03-08T11:39:49;101741.34;;;13.82;57.35
38786;BME280;24535;45.508;12.252;2024-03-08T11:42:25;101753.16;;;13.91;56.97
38786;BME280;24535;45.508;12.252;2024-03-08T11:45:14;101756.44;;;13.94;57.46
38786;BME280;24535;45.508;12.252;2024-03-08T11:47:52;101746.78;;;13.93;56.76
38786;BME280;24535;45.508;12.252;2024-03-08T11:50:40;101744.06;;;13.95;57.25
38786;BME280;24535;45.508;12.252;2024-03-08T11:55:37;101743.28;;;13.93;57.24
38786;BME280;24535;45.508;12.252;2024-03-08T11:58:21;101739.06;;;13.90;57.37
38786;BME280;24535;45.508;12.252;2024-03-08T12:00:46;101740.84;;;13.90;57.19
38786;BME280;24535;45.508;12.252;2024-03-08T12:03:12;101742.34;;;13.94;56.89
38786;BME280;24535;45.508;12.252;2024-03-08T12:05:43;101737.91;;;13.94;56.92
38786;BME280;24535;45.508;12.252;2024-03-08T12:08:09;101735.25;;;13.94;56.64
38786;BME280;24535;45.508;12.252;2024-03-08T12:10:43;101730.81;;;13.95;57.11
38786;BME280;24535;45.508;12.252;2024-03-08T12:13:09;101735.25;;;13.94;56.58
38786;BME280;24535;45.508;12.252;2024-03-08T12:15:39;101722.00;;;13.94;56.71
38786;BME280;24535;45.508;12.252;2024-03-08T12:18:10;101725.31;;;13.98;56.47
38786;BME280;24535;45.508;12.252;2024-03-08T12:20:44;101722.66;;;13.98;56.66
38786;BME280;24535;45.508;12.252;2024-03-08T12:23:15;101727.97;;;13.98;56.53
38786;BME280;24535;45.508;12.252;2024-03-08T12:25:50;101720.28;;;13.93;56.85
38786;BME280;24535;45.508;12.252;2024-03-08T12:28:22;101706.50;;;13.88;56.48
38786;BME280;24535;45.508;12.252;2024-03-08T12:30:53;101705.34;;;13.92;56.95
38786;BME280;24535;45.508;12.252;2024-03-08T12:33:30;101695.72;;;13.91;56.84
38786;BME280;24535;45.508;12.252;2024-03-08T12:35:56;101696.44;;;13.93;57.02
38786;BME280;24535;45.508;12.252;2024-03-08T12:38:29;101688.50;;;13.93;56.79
38786;BME280;24535;45.508;12.252;2024-03-08T12:41:08;101685.13;;;13.91;56.08
38786;BME280;24535;45.508;12.252;2024-03-08T12:43:33;101686.81;;;13.92;56.65
38786;BME280;24535;45.508;12.252;2024-03-08T12:45:59;101675.66;;;13.87;56.54
38786;BME280;24535;45.508;12.252;2024-03-08T12:48:24;101679.16;;;13.88;56.02
38786;BME280;24535;45.508;12.252;2024-03-08T12:50:50;101671.22;;;13.88;56.36
38786;BME280;24535;45.508;12.252;2024-03-08T12:58:39;101675.78;;;13.85;55.85
38786;BME280;24535;45.508;12.252;2024-03-08T13:01:11;101673.41;;;13.81;56.10
38786;BME280;24535;45.508;12.252;2024-03-08T13:03:43;101670.75;;;13.81;56.15
38786;BME280;24535;45.508;12.252;2024-03-08T13:06:15;101664.94;;;13.76;56.46
38786;BME280;24535;45.508;12.252;2024-03-08T13:08:47;101666.72;;;13.75;56.51
38786;BME280;24535;45.508;12.252;2024-03-08T13:11:40;101669.84;;;13.82;55.99
38786;BME280;24535;45.508;12.252;2024-03-08T13:14:08;101660.94;;;13.83;56.25
38786;BME280;24535;45.508;12.252;2024-03-08T13:16:35;101669.63;;;13.85;56.52
38786;BME280;24535;45.508;12.252;2024-03-08T13:19:01;101650.53;;;13.80;56.14
38786;BME280;24535;45.508;12.252;2024-03-08T13:21:26;101666.22;;;13.83;56.69
38786;BME280;24535;45.508;12.252;2024-03-08T13:23:58;101641.63;;;13.81;56.42
38786;BME280;24535;45.508;12.252;2024-03-08T13:26:29;101658.75;;;13.90;56.76
38786;BME280;24535;45.508;12.252;2024-03-08T13:28:58;101655.22;;;13.89;56.55
38786;BME280;24535;45.508;12.252;2024-03-08T13:31:41;101645.38;;;13.91;55.70
38786;BME280;24535;45.508;12.252;2024-03-08T13:34:07;101658.44;;;13.94;56.05
38786;BME280;24535;45.508;12.252;2024-03-08T13:41:46;101641.78;;;13.92;55.92
38786;BME280;24535;45.508;12.252;2024-03-08T13:44:15;101639.03;;;13.94;55.44
38786;BME280;24535;45.508;12.252;2024-03-08T13:46:48;101642.72;;;13.91;55.68
38786;BME280;24535;45.508;12.252;2024-03-08T13:49:16;101644.28;;;13.81;55.58
38786;BME280;24535;45.508;12.252;2024-03-08T13:51:41;101639.09;;;13.79;56.38
38786;BME280;24535;45.508;12.252;2024-03-08T13:54:07;101638.91;;;13.82;56.05
38786;BME280;24535;45.508;12.252;2024-03-08T13:56:32;101641.63;;;13.81;55.79
38786;BME280;24535;45.508;12.252;2024-03-08T13:58:58;101636.34;;;13.81;55.81
38786;BME280;24535;45.508;12.252;2024-03-08T14:01:23;101634.94;;;13.75;55.57
38786;BME280;24535;45.508;12.252;2024-03-08T14:03:53;101636.34;;;13.81;56.09
38786;BME280;24535;45.508;12.252;2024-03-08T14:06:19;101634.44;;;13.83;55.63
38786;BME280;24535;45.508;12.252;2024-03-08T14:08:44;101629.81;;;13.87;55.79
38786;BME280;24535;45.508;12.252;2024-03-08T14:11:09;101630.53;;;13.89;55.95
38786;BME280;24535;45.508;12.252;2024-03-08T14:13:47;101639.56;;;13.99;55.81
38786;BME280;24535;45.508;12.252;2024-03-08T14:16:13;101632.34;;;14.01;55.46
38786;BME280;24535;45.508;12.252;2024-03-08T14:18:38;101625.38;;;14.00;55.71
38786;BME280;24535;45.508;12.252;2024-03-08T14:21:13;101622.59;;;14.01;56.11
38786;BME280;24535;45.508;12.252;2024-03-08T14:28:51;101618.06;;;14.03;56.15
38786;BME280;24535;45.508;12.252;2024-03-08T14:31:22;101619.03;;;14.02;55.45
38786;BME280;24535;45.508;12.252;2024-03-08T14:33:54;101617.13;;;14.04;55.33
38786;BME280;24535;45.508;12.252;2024-03-08T14:36:20;101612.56;;;14.06;55.94
38786;BME280;24535;45.508;12.252;2024-03-08T14:38:46;101608.19;;;14.05;55.81
38786;BME280;24535;45.508;12.252;2024-03-08T14:41:15;101601.41;;;14.01;55.25
38786;BME280;24535;45.508;12.252;2024-03-08T14:43:43;101595.38;;;13.99;55.77
38786;BME280;24535;45.508;12.252;2024-03-08T14:46:25;101603.97;;;14.03;56.11
38786;BME280;24535;45.508;12.252;2024-03-08T14:48:58;101593.47;;;14.01;55.07
38786;BME280;24535;45.508;12.252;2024-03-08T14:51:29;101587.97;;;14.04;55.51
38786;BME280;24535;45.508;12.252;2024-03-08T14:53:56;101592.84;;;13.98;55.42
38786;BME280;24535;45.508;12.252;2024-03-08T14:56:22;101586.69;;;13.97;55.94
38786;BME280;24535;45.508;12.252;2024-03-08T15:04:54;101586.28;;;14.03;55.98
38786;BME280;24535;45.508;12.252;2024-03-08T15:07:28;101571.34;;;14.02;54.83
38786;BME280;24535;45.508;12.252;2024-03-08T15:10:30;101582.88;;;14.01;55.23
38786;BME280;24535;45.508;12.252;2024-03-08T15:16:28;101564.00;;;13.93;55.48
38786;BME280;24535;45.508;12.252;2024-03-08T15:19:06;101571.94;;;13.93;55.92
38786;BME280;24535;45.508;12.252;2024-03-08T15:21:48;101569.41;;;13.92;55.88
38786;BME280;24535;45.508;12.252;2024-03-08T15:24:24;101558.81;;;13.92;55.69
38786;BME280;24535;45.508;12.252;2024-03-08T15:26:49;101552.69;;;13.91;55.90
38786;BME280;24535;45.508;12.252;2024-03-08T15:29:33;101547.50;;;13.90;55.54
38786;BME280;24535;45.508;12.252;2024-03-08T15:32:03;101546.53;;;13.91;56.00
38786;BME280;24535;45.508;12.252;2024-03-08T15:34:30;101545.69;;;13.90;55.41
38786;BME280;24535;45.508;12.252;2024-03-08T15:37:08;101549.50;;;13.86;55.38
38786;BME280;24535;45.508;12.252;2024-03-08T15:48:50;101560.41;;;13.94;55.44
38786;BME280;24535;45.508;12.252;2024-03-08T15:51:28;101551.81;;;13.91;55.84
38786;BME280;24535;45.508;12.252;2024-03-08T15:53:55;101553.31;;;13.95;55.63
38786;BME280;24535;45.508;12.252;2024-03-08T15:56:24;101545.44;;;13.93;56.06
38786;BME280;24535;45.508;12.252;2024-03-08T15:58:54;101553.00;;;13.99;55.29
38786;BME280;24535;45.508;12.252;2024-03-08T16:01:22;101553.97;;;13.98;55.71